sensor_id;sensor_type;location;lat;lon;timestamp;temperature;humidity
13251;DHT22;6692;50.710;7.180;2022-09-17T00:01:31;11.60;99.90
13251;DHT22;6692;50.710;7.180;2022-09-17T00:03:31;11.60;99.90
13251;DHT22;6692;50.710;7.180;2022-09-17T00:05:33;11.60;99.90
13251;DHT22;6692;50.710;7.180;2022-09-17T00:07:34;11.60;99.90
13251;DHT22;6692;50.710;7.180;2022-09-17T00:09:35;11.60;99.90
13251;DHT22;6692;50.710;7.180;2022-09-17T00:11:37;11.60;99.90
13251;DHT22;6692;50.710;7.180;2022-09-17T00:13:36;11.60;99.90
13251;DHT22;6692;50.710;7.180;2022-09-17T00:15:39;11.60;99.90
13251;DHT22;6692;50.710;7.180;2022-09-17T00:17:40;11.60;99.90
13251;DHT22;6692;50.710;7.180;2022-09-17T00:19:40;11.60;99.90
13251;DHT22;6692;50.710;7.180;2022-09-17T00:21:41;11.70;99.90
13251;DHT22;6692;50.710;7.180;2022-09-17T00:23:43;11.70;99.90
13251;DHT22;6692;50.710;7.180;2022-09-17T00:25:44;11.70;99.90
13251;DHT22;6692;50.710;7.180;2022-09-17T00:27:45;11.70;99.90
13251;DHT22;6692;50.710;7.180;2022-09-17T00:29:46;11.70;99.90
13251;DHT22;6692;50.710;7.180;2022-09-17T00:31:46;11.70;99.90
13251;DHT22;6692;50.710;7.180;2022-09-17T00:33:46;11.70;99.90
13251;DHT22;6692;50.710;7.180;2022-09-17T00:35:56;11.70;99.90
13251;DHT22;6692;50.710;7.180;2022-09-17T00:37:47;11.70;99.90
13251;DHT22;6692;50.710;7.180;2022-09-17T00:39:48;11.70;99.90
13251;DHT22;6692;50.710;7.180;2022-09-17T00:41:49;11.70;99.90
13251;DHT22;6692;50.710;7.180;2022-09-17T00:43:55;11.80;99.90
13251;DHT22;6692;50.710;7.180;2022-09-17T00:45:55;11.80;99.90
13251;DHT22;6692;50.710;7.180;2022-09-17T00:47:58;11.80;99.90
13251;DHT22;6692;50.710;7.180;2022-09-17T00:50:02;11.80;99.90
13251;DHT22;6692;50.710;7.180;2022-09-17T00:52:03;11.80;99.90
13251;DHT22;6692;50.710;7.180;2022-09-17T00:54:01;11.80;99.90
13251;DHT22;6692;50.710;7.180;2022-09-17T00:56:06;11.80;99.90
13251;DHT22;6692;50.710;7.180;2022-09-17T00:58:05;11.70;99.90
13251;DHT22;6692;50.710;7.180;2022-09-17T01:00:06;11.80;99.90
13251;DHT22;6692;50.710;7.180;2022-09-17T01:02:07;11.80;99.90
13251;DHT22;6692;50.710;7.180;2022-09-17T01:04:14;11.80;99.90
13251;DHT22;6692;50.710;7.180;2022-09-17T01:08:55;11.80;99.90
13251;DHT22;6692;50.710;7.180;2022-09-17T01:11:03;11.80;99.90
13251;DHT22;6692;50.710;7.180;2022-09-17T01:13:31;11.90;99.90
13251;DHT22;6692;50.710;7.180;2022-09-17T01:15:38;11.80;99.90
13251;DHT22;6692;50.710;7.180;2022-09-17T01:22:02;11.70;99.90
13251;DHT22;6692;50.710;7.180;2022-09-17T01:24:42;11.70;99.90
13251;DHT22;6692;50.710;7.180;2022-09-17T01:26:37;11.60;99.90
13251;DHT22;6692;50.710;7.180;2022-09-17T01:30:54;11.60;99.90
13251;DHT22;6692;50.710;7.180;2022-09-17T01:32:57;11.60;99.90
13251;DHT22;6692;50.710;7.180;2022-09-17T01:34:58;11.60;99.90
13251;DHT22;6692;50.710;7.180;2022-09-17T01:37:11;11.50;99.90
13251;DHT22;6692;50.710;7.180;2022-09-17T01:39:32;11.50;99.90
13251;DHT22;6692;50.710;7.180;2022-09-17T01:41:44;11.50;99.90
13251;DHT22;6692;50.710;7.180;2022-09-17T01:43:51;11.60;99.90
13251;DHT22;6692;50.710;7.180;2022-09-17T01:45:53;11.60;99.90
13251;DHT22;6692;50.710;7.180;2022-09-17T01:47:53;11.50;99.90
13251;DHT22;6692;50.710;7.180;2022-09-17T01:49:54;11.60;99.90
13251;DHT22;6692;50.710;7.180;2022-09-17T01:51:54;11.60;99.90
13251;DHT22;6692;50.710;7.180;2022-09-17T01:53:58;11.60;99.90
13251;DHT22;6692;50.710;7.180;2022-09-17T01:55:57;11.60;99.90
13251;DHT22;6692;50.710;7.180;2022-09-17T01:58:02;11.60;99.90
13251;DHT22;6692;50.710;7.180;2022-09-17T02:00:04;11.70;99.90
13251;DHT22;6692;50.710;7.180;2022-09-17T02:02:06;11.70;99.90
13251;DHT22;6692;50.710;7.180;2022-09-17T02:04:06;11.70;99.90
13251;DHT22;6692;50.710;7.180;2022-09-17T02:06:10;11.70;99.90
13251;DHT22;6692;50.710;7.180;2022-09-17T02:08:15;11.80;99.90
13251;DHT22;6692;50.710;7.180;2022-09-17T02:10:17;11.80;99.90
13251;DHT22;6692;50.710;7.180;2022-09-17T02:12:17;11.80;99.90
13251;DHT22;6692;50.710;7.180;2022-09-17T02:14:19;11.90;99.90
13251;DHT22;6692;50.710;7.180;2022-09-17T02:16:21;11.90;99.90
13251;DHT22;6692;50.710;7.180;2022-09-17T02:18:36;11.90;99.90
13251;DHT22;6692;50.710;7.180;2022-09-17T02:20:39;11.90;99.90
13251;DHT22;6692;50.710;7.180;2022-09-17T02:22:40;11.90;99.90
13251;DHT22;6692;50.710;7.180;2022-09-17T02:24:44;12.00;99.90
13251;DHT22;6692;50.710;7.180;2022-09-17T02:26:44;12.00;99.90
13251;DHT22;6692;50.710;7.180;2022-09-17T02:28:47;12.00;99.90
13251;DHT22;6692;50.710;7.180;2022-09-17T02:30:46;12.00;99.90
13251;DHT22;6692;50.710;7.180;2022-09-17T02:32:46;11.90;99.90
13251;DHT22;6692;50.710;7.180;2022-09-17T02:34:48;11.90;99.90
13251;DHT22;6692;50.710;7.180;2022-09-17T02:36:49;11.90;99.90
13251;DHT22;6692;50.710;7.180;2022-09-17T02:38:53;11.90;99.90
13251;DHT22;6692;50.710;7.180;2022-09-17T02:41:00;11.90;99.90
13251;DHT22;6692;50.710;7.180;2022-09-17T02:43:09;12.00;99.90
13251;DHT22;6692;50.710;7.180;2022-09-17T02:45:27;11.90;99.90
13251;DHT22;6692;50.710;7.180;2022-09-17T02:47:37;11.90;99.90
13251;DHT22;6692;50.710;7.180;2022-09-17T02:49:43;11.90;99.90
13251;DHT22;6692;50.710;7.180;2022-09-17T02:51:49;11.90;99.90
13251;DHT22;6692;50.710;7.180;2022-09-17T02:58:13;11.90;99.90
13251;DHT22;6692;50.710;7.180;2022-09-17T03:00:15;11.90;99.90
13251;DHT22;6692;50.710;7.180;2022-09-17T03:02:18;11.90;99.90
13251;DHT22;6692;50.710;7.180;2022-09-17T03:04:17;11.90;99.90
13251;DHT22;6692;50.710;7.180;2022-09-17T03:06:19;11.90;99.90
13251;DHT22;6692;50.710;7.180;2022-09-17T03:08:26;11.90;99.90
13251;DHT22;6692;50.710;7.180;2022-09-17T03:10:20;11.90;99.90
13251;DHT22;6692;50.710;7.180;2022-09-17T03:12:21;11.90;99.90
13251;DHT22;6692;50.710;7.180;2022-09-17T03:14:22;11.90;99.90
13251;DHT22;6692;50.710;7.180;2022-09-17T03:16:24;11.90;99.90
13251;DHT22;6692;50.710;7.180;2022-09-17T03:18:24;11.90;99.90
13251;DHT22;6692;50.710;7.180;2022-09-17T03:20:25;11.90;99.90
13251;DHT22;6692;50.710;7.180;2022-09-17T03:22:26;11.90;99.90
13251;DHT22;6692;50.710;7.180;2022-09-17T03:24:27;11.90;99.90
13251;DHT22;6692;50.710;7.180;2022-09-17T03:26:28;11.90;99.90
13251;DHT22;6692;50.710;7.180;2022-09-17T03:28:28;11.90;99.90
13251;DHT22;6692;50.710;7.180;2022-09-17T03:30:29;11.90;99.90
13251;DHT22;6692;50.710;7.180;2022-09-17T03:32:29;11.90;99.90
13251;DHT22;6692;50.710;7.180;2022-09-17T03:34:30;11.90;99.90
13251;DHT22;6692;50.710;7.180;2022-09-17T03:36:31;11.90;99.90
13251;DHT22;6692;50.710;7.180;2022-09-17T03:38:32;11.80;99.90
13251;DHT22;6692;50.710;7.180;2022-09-17T03:40:33;11.80;99.90
13251;DHT22;6692;50.710;7.180;2022-09-17T03:42:34;11.70;99.90
13251;DHT22;6692;50.710;7.180;2022-09-17T03:44:35;11.70;99.90
13251;DHT22;6692;50.710;7.180;2022-09-17T03:46:35;11.70;99.90
13251;DHT22;6692;50.710;7.180;2022-09-17T03:48:37;11.60;99.90
13251;DHT22;6692;50.710;7.180;2022-09-17T03:50:38;11.60;99.90
13251;DHT22;6692;50.710;7.180;2022-09-17T03:52:41;11.60;99.90
13251;DHT22;6692;50.710;7.180;2022-09-17T03:54:41;11.60;99.90
13251;DHT22;6692;50.710;7.180;2022-09-17T03:56:41;11.70;99.90
13251;DHT22;6692;50.710;7.180;2022-09-17T03:58:42;11.60;99.90
13251;DHT22;6692;50.710;7.180;2022-09-17T04:00:43;11.60;99.90
13251;DHT22;6692;50.710;7.180;2022-09-17T04:02:45;11.60;99.90
13251;DHT22;6692;50.710;7.180;2022-09-17T04:04:46;11.50;99.90
13251;DHT22;6692;50.710;7.180;2022-09-17T04:06:47;11.50;99.90
13251;DHT22;6692;50.710;7.180;2022-09-17T04:08:47;11.50;99.90
13251;DHT22;6692;50.710;7.180;2022-09-17T04:10:48;11.50;99.90
13251;DHT22;6692;50.710;7.180;2022-09-17T04:12:49;11.50;99.90
13251;DHT22;6692;50.710;7.180;2022-09-17T04:14:50;11.50;99.90
13251;DHT22;6692;50.710;7.180;2022-09-17T04:16:50;11.50;99.90
13251;DHT22;6692;50.710;7.180;2022-09-17T04:18:51;11.50;99.90
13251;DHT22;6692;50.710;7.180;2022-09-17T04:20:52;11.50;99.90
13251;DHT22;6692;50.710;7.180;2022-09-17T04:22:53;11.50;99.90
13251;DHT22;6692;50.710;7.180;2022-09-17T04:24:54;11.50;99.90
13251;DHT22;6692;50.710;7.180;2022-09-17T04:26:55;11.50;99.90
13251;DHT22;6692;50.710;7.180;2022-09-17T04:28:55;11.60;99.90
13251;DHT22;6692;50.710;7.180;2022-09-17T04:30:57;11.60;99.90
13251;DHT22;6692;50.710;7.180;2022-09-17T04:32:58;11.60;99.90
13251;DHT22;6692;50.710;7.180;2022-09-17T04:34:59;11.60;99.90
13251;DHT22;6692;50.710;7.180;2022-09-17T04:37:00;11.60;99.90
13251;DHT22;6692;50.710;7.180;2022-09-17T04:39:01;11.60;99.90
13251;DHT22;6692;50.710;7.180;2022-09-17T04:41:01;11.60;99.90
13251;DHT22;6692;50.710;7.180;2022-09-17T04:43:03;11.60;99.90
13251;DHT22;6692;50.710;7.180;2022-09-17T04:45:05;11.60;99.90
13251;DHT22;6692;50.710;7.180;2022-09-17T04:47:06;11.60;99.90
13251;DHT22;6692;50.710;7.180;2022-09-17T04:49:06;11.70;99.90
13251;DHT22;6692;50.710;7.180;2022-09-17T04:51:07;11.60;99.90
13251;DHT22;6692;50.710;7.180;2022-09-17T04:53:07;11.60;99.90
13251;DHT22;6692;50.710;7.180;2022-09-17T04:55:08;11.60;99.90
13251;DHT22;6692;50.710;7.180;2022-09-17T04:57:09;11.60;99.90
13251;DHT22;6692;50.710;7.180;2022-09-17T04:59:10;11.60;99.90
13251;DHT22;6692;50.710;7.180;2022-09-17T05:01:11;11.70;99.90
13251;DHT22;6692;50.710;7.180;2022-09-17T05:03:13;11.70;99.90
13251;DHT22;6692;50.710;7.180;2022-09-17T05:05:14;11.70;99.90
13251;DHT22;6692;50.710;7.180;2022-09-17T05:07:14;11.70;99.90
13251;DHT22;6692;50.710;7.180;2022-09-17T05:09:15;11.70;99.90
13251;DHT22;6692;50.710;7.180;2022-09-17T05:11:15;11.70;99.90
13251;DHT22;6692;50.710;7.180;2022-09-17T05:13:17;11.80;99.90
13251;DHT22;6692;50.710;7.180;2022-09-17T05:15:18;11.70;99.90
13251;DHT22;6692;50.710;7.180;2022-09-17T05:17:18;11.80;99.90
13251;DHT22;6692;50.710;7.180;2022-09-17T05:19:19;11.80;99.90
13251;DHT22;6692;50.710;7.180;2022-09-17T05:21:19;11.80;99.90
13251;DHT22;6692;50.710;7.180;2022-09-17T05:23:20;11.80;99.90
13251;DHT22;6692;50.710;7.180;2022-09-17T05:25:21;11.80;99.90
13251;DHT22;6692;50.710;7.180;2022-09-17T05:27:23;11.80;99.90
13251;DHT22;6692;50.710;7.180;2022-09-17T05:29:24;11.80;99.90
13251;DHT22;6692;50.710;7.180;2022-09-17T05:31:25;11.80;99.90
13251;DHT22;6692;50.710;7.180;2022-09-17T05:33:27;11.90;99.90
13251;DHT22;6692;50.710;7.180;2022-09-17T05:35:28;11.80;99.90
13251;DHT22;6692;50.710;7.180;2022-09-17T05:37:29;11.80;99.90
13251;DHT22;6692;50.710;7.180;2022-09-17T05:39:30;11.80;99.90
13251;DHT22;6692;50.710;7.180;2022-09-17T05:41:31;11.90;99.90
13251;DHT22;6692;50.710;7.180;2022-09-17T05:43:32;11.80;99.90
13251;DHT22;6692;50.710;7.180;2022-09-17T05:45:32;11.90;99.90
13251;DHT22;6692;50.710;7.180;2022-09-17T05:47:33;11.90;99.90
13251;DHT22;6692;50.710;7.180;2022-09-17T05:49:35;11.90;99.90
13251;DHT22;6692;50.710;7.180;2022-09-17T05:51:35;11.80;99.90
13251;DHT22;6692;50.710;7.180;2022-09-17T05:53:37;11.90;99.90
13251;DHT22;6692;50.710;7.180;2022-09-17T05:55:37;11.90;99.90
13251;DHT22;6692;50.710;7.180;2022-09-17T05:57:38;12.00;99.90
13251;DHT22;6692;50.710;7.180;2022-09-17T05:59:38;12.00;99.90
13251;DHT22;6692;50.710;7.180;2022-09-17T06:01:39;12.00;99.90
13251;DHT22;6692;50.710;7.180;2022-09-17T06:03:40;12.00;99.90
13251;DHT22;6692;50.710;7.180;2022-09-17T06:05:40;12.00;99.90
13251;DHT22;6692;50.710;7.180;2022-09-17T06:07:41;12.00;99.90
13251;DHT22;6692;50.710;7.180;2022-09-17T06:09:42;12.00;99.90
13251;DHT22;6692;50.710;7.180;2022-09-17T06:11:42;12.00;99.90
13251;DHT22;6692;50.710;7.180;2022-09-17T06:13:44;12.00;99.90
13251;DHT22;6692;50.710;7.180;2022-09-17T06:15:49;12.00;99.90
13251;DHT22;6692;50.710;7.180;2022-09-17T06:17:49;12.00;99.90
13251;DHT22;6692;50.710;7.180;2022-09-17T06:19:50;12.10;99.90
13251;DHT22;6692;50.710;7.180;2022-09-17T06:21:52;12.20;99.90
13251;DHT22;6692;50.710;7.180;2022-09-17T06:23:52;12.10;99.90
13251;DHT22;6692;50.710;7.180;2022-09-17T06:25:54;12.30;99.90
13251;DHT22;6692;50.710;7.180;2022-09-17T06:27:54;12.30;99.90
13251;DHT22;6692;50.710;7.180;2022-09-17T06:29:55;12.40;99.90
13251;DHT22;6692;50.710;7.180;2022-09-17T06:31:55;12.50;99.90
13251;DHT22;6692;50.710;7.180;2022-09-17T06:33:56;12.60;99.90
13251;DHT22;6692;50.710;7.180;2022-09-17T06:35:57;12.60;99.90
13251;DHT22;6692;50.710;7.180;2022-09-17T06:37:57;12.70;99.90
13251;DHT22;6692;50.710;7.180;2022-09-17T06:39:59;12.80;99.90
13251;DHT22;6692;50.710;7.180;2022-09-17T06:42:00;12.80;99.90
13251;DHT22;6692;50.710;7.180;2022-09-17T06:44:00;12.90;99.90
13251;DHT22;6692;50.710;7.180;2022-09-17T06:46:03;12.90;99.90
13251;DHT22;6692;50.710;7.180;2022-09-17T06:48:02;13.00;99.90
13251;DHT22;6692;50.710;7.180;2022-09-17T06:50:04;13.10;99.90
13251;DHT22;6692;50.710;7.180;2022-09-17T06:52:04;13.10;99.90
13251;DHT22;6692;50.710;7.180;2022-09-17T06:54:05;13.20;99.90
13251;DHT22;6692;50.710;7.180;2022-09-17T06:56:06;13.20;99.90
13251;DHT22;6692;50.710;7.180;2022-09-17T06:58:07;13.20;99.90
13251;DHT22;6692;50.710;7.180;2022-09-17T07:00:09;13.30;99.90
13251;DHT22;6692;50.710;7.180;2022-09-17T07:02:10;13.30;99.90
13251;DHT22;6692;50.710;7.180;2022-09-17T07:04:11;13.40;99.90
13251;DHT22;6692;50.710;7.180;2022-09-17T07:06:12;13.40;99.90
13251;DHT22;6692;50.710;7.180;2022-09-17T07:08:12;13.40;99.90
13251;DHT22;6692;50.710;7.180;2022-09-17T07:10:13;13.60;99.90
13251;DHT22;6692;50.710;7.180;2022-09-17T07:12:14;13.70;99.90
13251;DHT22;6692;50.710;7.180;2022-09-17T07:14:14;13.80;99.90
13251;DHT22;6692;50.710;7.180;2022-09-17T07:16:15;13.90;99.90
13251;DHT22;6692;50.710;7.180;2022-09-17T07:18:15;13.90;99.90
13251;DHT22;6692;50.710;7.180;2022-09-17T07:20:16;13.90;99.90
13251;DHT22;6692;50.710;7.180;2022-09-17T07:22:17;13.90;99.90
13251;DHT22;6692;50.710;7.180;2022-09-17T07:24:17;13.80;99.90
13251;DHT22;6692;50.710;7.180;2022-09-17T07:26:19;13.70;99.90
13251;DHT22;6692;50.710;7.180;2022-09-17T07:28:20;13.70;99.90
13251;DHT22;6692;50.710;7.180;2022-09-17T07:30:21;13.60;99.90
13251;DHT22;6692;50.710;7.180;2022-09-17T07:32:22;13.60;99.90
13251;DHT22;6692;50.710;7.180;2022-09-17T07:34:23;13.60;99.90
13251;DHT22;6692;50.710;7.180;2022-09-17T07:36:23;13.60;99.90
13251;DHT22;6692;50.710;7.180;2022-09-17T07:38:24;13.50;99.90
13251;DHT22;6692;50.710;7.180;2022-09-17T07:40:25;13.50;99.90
13251;DHT22;6692;50.710;7.180;2022-09-17T07:42:25;13.50;99.90
13251;DHT22;6692;50.710;7.180;2022-09-17T07:44:27;13.60;99.90
13251;DHT22;6692;50.710;7.180;2022-09-17T07:46:28;13.60;99.90
13251;DHT22;6692;50.710;7.180;2022-09-17T07:48:28;13.60;99.90
13251;DHT22;6692;50.710;7.180;2022-09-17T07:50:29;13.60;99.90
13251;DHT22;6692;50.710;7.180;2022-09-17T07:52:31;13.60;99.90
13251;DHT22;6692;50.710;7.180;2022-09-17T07:54:32;13.60;99.90
13251;DHT22;6692;50.710;7.180;2022-09-17T07:56:33;13.60;99.90
13251;DHT22;6692;50.710;7.180;2022-09-17T07:58:33;13.50;99.90
13251;DHT22;6692;50.710;7.180;2022-09-17T08:00:35;13.50;99.90
13251;DHT22;6692;50.710;7.180;2022-09-17T08:02:36;13.50;99.90
13251;DHT22;6692;50.710;7.180;2022-09-17T08:04:37;13.40;99.90
13251;DHT22;6692;50.710;7.180;2022-09-17T08:06:38;13.50;99.90
13251;DHT22;6692;50.710;7.180;2022-09-17T08:08:39;13.40;99.90
13251;DHT22;6692;50.710;7.180;2022-09-17T08:10:40;13.40;99.90
13251;DHT22;6692;50.710;7.180;2022-09-17T08:12:41;13.40;99.90
13251;DHT22;6692;50.710;7.180;2022-09-17T08:14:42;13.50;99.90
13251;DHT22;6692;50.710;7.180;2022-09-17T08:16:42;13.50;99.90
13251;DHT22;6692;50.710;7.180;2022-09-17T08:18:43;13.60;99.90
13251;DHT22;6692;50.710;7.180;2022-09-17T08:20:44;13.60;99.90
13251;DHT22;6692;50.710;7.180;2022-09-17T08:22:44;13.70;99.90
13251;DHT22;6692;50.710;7.180;2022-09-17T08:24:45;13.80;99.90
13251;DHT22;6692;50.710;7.180;2022-09-17T08:26:45;13.80;99.90
13251;DHT22;6692;50.710;7.180;2022-09-17T08:28:47;13.80;99.90
13251;DHT22;6692;50.710;7.180;2022-09-17T08:30:47;13.90;99.90
13251;DHT22;6692;50.710;7.180;2022-09-17T08:32:47;14.00;99.90
13251;DHT22;6692;50.710;7.180;2022-09-17T08:34:48;14.00;99.90
13251;DHT22;6692;50.710;7.180;2022-09-17T08:36:49;14.00;99.90
13251;DHT22;6692;50.710;7.180;2022-09-17T08:38:51;14.10;99.90
13251;DHT22;6692;50.710;7.180;2022-09-17T08:41:17;14.10;99.90
13251;DHT22;6692;50.710;7.180;2022-09-17T08:43:14;14.00;99.90
13251;DHT22;6692;50.710;7.180;2022-09-17T08:45:13;14.00;99.90
13251;DHT22;6692;50.710;7.180;2022-09-17T08:47:29;13.90;99.90
13251;DHT22;6692;50.710;7.180;2022-09-17T08:49:36;14.00;99.90
13251;DHT22;6692;50.710;7.180;2022-09-17T08:51:56;14.00;99.90
13251;DHT22;6692;50.710;7.180;2022-09-17T08:54:02;14.00;99.90
13251;DHT22;6692;50.710;7.180;2022-09-17T08:56:01;14.10;99.90
13251;DHT22;6692;50.710;7.180;2022-09-17T08:58:16;14.30;99.90
13251;DHT22;6692;50.710;7.180;2022-09-17T09:00:11;14.40;99.90
13251;DHT22;6692;50.710;7.180;2022-09-17T09:02:19;14.60;99.90
13251;DHT22;6692;50.710;7.180;2022-09-17T09:04:24;14.60;99.90
13251;DHT22;6692;50.710;7.180;2022-09-17T09:06:23;14.60;99.90
13251;DHT22;6692;50.710;7.180;2022-09-17T09:08:36;14.60;99.90
13251;DHT22;6692;50.710;7.180;2022-09-17T09:10:44;14.70;99.90
13251;DHT22;6692;50.710;7.180;2022-09-17T09:12:41;14.70;99.90
13251;DHT22;6692;50.710;7.180;2022-09-17T09:14:50;14.70;99.90
13251;DHT22;6692;50.710;7.180;2022-09-17T09:16:49;14.60;99.90
13251;DHT22;6692;50.710;7.180;2022-09-17T09:18:51;14.60;99.90
13251;DHT22;6692;50.710;7.180;2022-09-17T09:20:57;14.50;99.90
13251;DHT22;6692;50.710;7.180;2022-09-17T09:22:54;14.40;99.90
13251;DHT22;6692;50.710;7.180;2022-09-17T09:25:17;14.30;99.90
13251;DHT22;6692;50.710;7.180;2022-09-17T09:27:16;14.40;99.90
13251;DHT22;6692;50.710;7.180;2022-09-17T09:29:33;14.40;99.90
13251;DHT22;6692;50.710;7.180;2022-09-17T09:31:46;14.30;99.90
13251;DHT22;6692;50.710;7.180;2022-09-17T09:33:44;14.30;99.90
13251;DHT22;6692;50.710;7.180;2022-09-17T09:35:45;14.40;99.90
13251;DHT22;6692;50.710;7.180;2022-09-17T09:38:12;14.60;99.90
13251;DHT22;6692;50.710;7.180;2022-09-17T09:40:32;14.60;99.90
13251;DHT22;6692;50.710;7.180;2022-09-17T09:42:33;14.70;99.90
13251;DHT22;6692;50.710;7.180;2022-09-17T09:44:34;15.10;99.90
13251;DHT22;6692;50.710;7.180;2022-09-17T09:46:39;15.10;99.90
13251;DHT22;6692;50.710;7.180;2022-09-17T09:48:51;15.30;99.90
13251;DHT22;6692;50.710;7.180;2022-09-17T09:50:48;15.30;99.90
13251;DHT22;6692;50.710;7.180;2022-09-17T09:53:10;15.30;99.90
13251;DHT22;6692;50.710;7.180;2022-09-17T09:55:19;15.30;99.90
13251;DHT22;6692;50.710;7.180;2022-09-17T09:57:17;15.20;99.90
13251;DHT22;6692;50.710;7.180;2022-09-17T09:59:17;15.30;99.90
13251;DHT22;6692;50.710;7.180;2022-09-17T10:01:18;15.40;99.90
13251;DHT22;6692;50.710;7.180;2022-09-17T10:03:23;15.40;99.90
13251;DHT22;6692;50.710;7.180;2022-09-17T10:05:22;15.50;99.90
13251;DHT22;6692;50.710;7.180;2022-09-17T10:07:22;15.60;99.90
13251;DHT22;6692;50.710;7.180;2022-09-17T10:09:23;15.70;99.90
13251;DHT22;6692;50.710;7.180;2022-09-17T10:11:25;15.70;99.90
13251;DHT22;6692;50.710;7.180;2022-09-17T10:13:26;15.70;99.90
13251;DHT22;6692;50.710;7.180;2022-09-17T10:15:27;15.70;99.90
13251;DHT22;6692;50.710;7.180;2022-09-17T10:17:27;15.70;99.90
13251;DHT22;6692;50.710;7.180;2022-09-17T10:19:27;15.90;99.70
13251;DHT22;6692;50.710;7.180;2022-09-17T10:21:32;15.90;99.90
13251;DHT22;6692;50.710;7.180;2022-09-17T10:23:32;15.80;99.60
13251;DHT22;6692;50.710;7.180;2022-09-17T10:25:33;15.70;99.60
13251;DHT22;6692;50.710;7.180;2022-09-17T10:27:33;15.70;99.60
13251;DHT22;6692;50.710;7.180;2022-09-17T10:29:35;15.50;98.90
13251;DHT22;6692;50.710;7.180;2022-09-17T10:31:49;15.40;98.80
13251;DHT22;6692;50.710;7.180;2022-09-17T10:34:00;15.40;99.80
13251;DHT22;6692;50.710;7.180;2022-09-17T10:36:04;15.40;99.90
13251;DHT22;6692;50.710;7.180;2022-09-17T10:38:24;15.70;99.50
13251;DHT22;6692;50.710;7.180;2022-09-17T10:40:27;15.80;99.30
13251;DHT22;6692;50.710;7.180;2022-09-17T10:42:28;16.00;99.30
13251;DHT22;6692;50.710;7.180;2022-09-17T10:44:30;16.20;99.00
13251;DHT22;6692;50.710;7.180;2022-09-17T10:46:30;16.20;99.00
13251;DHT22;6692;50.710;7.180;2022-09-17T10:48:32;16.30;97.70
13251;DHT22;6692;50.710;7.180;2022-09-17T10:50:33;16.30;98.20
13251;DHT22;6692;50.710;7.180;2022-09-17T10:52:35;16.30;98.20
13251;DHT22;6692;50.710;7.180;2022-09-17T10:54:43;16.30;96.60
13251;DHT22;6692;50.710;7.180;2022-09-17T10:56:42;16.10;95.90
13251;DHT22;6692;50.710;7.180;2022-09-17T10:58:47;16.00;95.90
13251;DHT22;6692;50.710;7.180;2022-09-17T11:03:20;16.10;97.00
13251;DHT22;6692;50.710;7.180;2022-09-17T11:05:39;16.40;96.20
13251;DHT22;6692;50.710;7.180;2022-09-17T11:07:57;16.30;96.10
13251;DHT22;6692;50.710;7.180;2022-09-17T11:10:11;16.40;95.30
13251;DHT22;6692;50.710;7.180;2022-09-17T11:14:49;16.40;95.60
13251;DHT22;6692;50.710;7.180;2022-09-17T11:19:14;16.00;96.70
13251;DHT22;6692;50.710;7.180;2022-09-17T11:21:34;15.90;97.60
13251;DHT22;6692;50.710;7.180;2022-09-17T11:24:46;15.80;98.00
13251;DHT22;6692;50.710;7.180;2022-09-17T11:25:55;15.70;99.40
13251;DHT22;6692;50.710;7.180;2022-09-17T11:28:04;15.70;99.80
13251;DHT22;6692;50.710;7.180;2022-09-17T11:30:07;15.70;99.80
13251;DHT22;6692;50.710;7.180;2022-09-17T11:32:21;15.80;99.90
13251;DHT22;6692;50.710;7.180;2022-09-17T11:34:28;16.00;99.90
13251;DHT22;6692;50.710;7.180;2022-09-17T11:36:49;16.30;99.90
13251;DHT22;6692;50.710;7.180;2022-09-17T11:38:48;16.30;99.90
13251;DHT22;6692;50.710;7.180;2022-09-17T11:40:57;16.40;99.90
13251;DHT22;6692;50.710;7.180;2022-09-17T11:42:55;16.40;99.90
13251;DHT22;6692;50.710;7.180;2022-09-17T11:44:57;16.30;97.80
13251;DHT22;6692;50.710;7.180;2022-09-17T11:46:57;16.10;96.30
13251;DHT22;6692;50.710;7.180;2022-09-17T11:48:58;16.00;96.60
13251;DHT22;6692;50.710;7.180;2022-09-17T11:50:59;15.90;95.90
13251;DHT22;6692;50.710;7.180;2022-09-17T11:53:03;15.90;97.00
13251;DHT22;6692;50.710;7.180;2022-09-17T11:55:35;15.90;97.10
13251;DHT22;6692;50.710;7.180;2022-09-17T11:57:34;15.90;97.10
13251;DHT22;6692;50.710;7.180;2022-09-17T11:59:36;15.90;95.70
13251;DHT22;6692;50.710;7.180;2022-09-17T12:01:43;16.00;95.70
13251;DHT22;6692;50.710;7.180;2022-09-17T12:03:44;16.00;95.30
13251;DHT22;6692;50.710;7.180;2022-09-17T12:05:47;16.00;94.80
13251;DHT22;6692;50.710;7.180;2022-09-17T12:08:09;16.10;95.00
13251;DHT22;6692;50.710;7.180;2022-09-17T12:10:31;16.20;95.20
13251;DHT22;6692;50.710;7.180;2022-09-17T12:12:28;16.50;94.00
13251;DHT22;6692;50.710;7.180;2022-09-17T12:14:41;16.70;93.30
13251;DHT22;6692;50.710;7.180;2022-09-17T12:16:36;16.80;93.30
13251;DHT22;6692;50.710;7.180;2022-09-17T12:18:45;16.80;93.90
13251;DHT22;6692;50.710;7.180;2022-09-17T12:20:44;16.70;93.50
13251;DHT22;6692;50.710;7.180;2022-09-17T12:22:44;16.50;95.10
13251;DHT22;6692;50.710;7.180;2022-09-17T12:24:45;15.90;97.80
13251;DHT22;6692;50.710;7.180;2022-09-17T12:26:56;15.40;99.90
13251;DHT22;6692;50.710;7.180;2022-09-17T12:28:59;14.80;99.90
13251;DHT22;6692;50.710;7.180;2022-09-17T12:31:01;14.40;99.90
13251;DHT22;6692;50.710;7.180;2022-09-17T12:33:07;14.20;99.90
13251;DHT22;6692;50.710;7.180;2022-09-17T12:35:19;14.10;99.90
13251;DHT22;6692;50.710;7.180;2022-09-17T12:37:23;14.10;99.90
13251;DHT22;6692;50.710;7.180;2022-09-17T12:41:45;14.30;99.90
13251;DHT22;6692;50.710;7.180;2022-09-17T12:44:39;14.50;99.90
13251;DHT22;6692;50.710;7.180;2022-09-17T12:46:34;15.10;99.90
13251;DHT22;6692;50.710;7.180;2022-09-17T12:50:51;15.70;99.90
13251;DHT22;6692;50.710;7.180;2022-09-17T12:55:25;15.30;99.90
13251;DHT22;6692;50.710;7.180;2022-09-17T12:57:34;15.30;99.90
13251;DHT22;6692;50.710;7.180;2022-09-17T12:59:31;15.10;99.90
13251;DHT22;6692;50.710;7.180;2022-09-17T13:01:49;15.10;99.90
13251;DHT22;6692;50.710;7.180;2022-09-17T13:03:51;14.70;99.90
13251;DHT22;6692;50.710;7.180;2022-09-17T13:06:09;14.70;99.90
13251;DHT22;6692;50.710;7.180;2022-09-17T13:08:33;14.80;99.90
13251;DHT22;6692;50.710;7.180;2022-09-17T13:10:39;15.40;99.90
13251;DHT22;6692;50.710;7.180;2022-09-17T13:12:55;16.60;99.90
13251;DHT22;6692;50.710;7.180;2022-09-17T13:15:19;17.20;99.90
13251;DHT22;6692;50.710;7.180;2022-09-17T13:17:36;17.60;99.80
13251;DHT22;6692;50.710;7.180;2022-09-17T13:19:46;18.00;98.40
13251;DHT22;6692;50.710;7.180;2022-09-17T13:23:57;18.70;97.70
13251;DHT22;6692;50.710;7.180;2022-09-17T13:25:58;19.30;96.50
13251;DHT22;6692;50.710;7.180;2022-09-17T13:28:03;20.50;94.40
13251;DHT22;6692;50.710;7.180;2022-09-17T13:30:04;20.50;94.40
13251;DHT22;6692;50.710;7.180;2022-09-17T13:32:05;20.90;91.30
13251;DHT22;6692;50.710;7.180;2022-09-17T13:38:27;21.80;90.30
13251;DHT22;6692;50.710;7.180;2022-09-17T13:40:30;22.00;90.00
13251;DHT22;6692;50.710;7.180;2022-09-17T13:42:31;20.90;85.60
13251;DHT22;6692;50.710;7.180;2022-09-17T13:44:33;20.80;85.60
13251;DHT22;6692;50.710;7.180;2022-09-17T13:46:34;20.60;87.70